sensor_id;sensor_type;location;lat;lon;timestamp;P1;durP1;ratioP1;P2;durP2;ratioP2
22223;SDS011;11281;52.194;21.006;2022-07-22T00:01:16;6.43;;;5.18;;
22223;SDS011;11281;52.194;21.006;2022-07-22T00:05:18;5.57;;;4.78;;
22223;SDS011;11281;52.194;21.006;2022-07-22T00:09:20;6.30;;;5.30;;
22223;SDS011;11281;52.194;21.006;2022-07-22T00:13:22;8.27;;;5.15;;
22223;SDS011;11281;52.194;21.006;2022-07-22T00:17:23;6.82;;;5.13;;
22223;SDS011;11281;52.194;21.006;2022-07-22T00:21:25;7.95;;;4.97;;
22223;SDS011;11281;52.194;21.006;2022-07-22T00:25:27;5.75;;;4.47;;
22223;SDS011;11281;52.194;21.006;2022-07-22T00:29:29;8.45;;;4.95;;
22223;SDS011;11281;52.194;21.006;2022-07-22T00:33:31;9.73;;;5.25;;
22223;SDS011;11281;52.194;21.006;2022-07-22T00:37:33;7.80;;;5.05;;
22223;SDS011;11281;52.194;21.006;2022-07-22T00:41:35;8.50;;;5.55;;
22223;SDS011;11281;52.194;21.006;2022-07-22T00:45:37;6.65;;;5.57;;
22223;SDS011;11281;52.194;21.006;2022-07-22T00:49:40;6.50;;;5.80;;
22223;SDS011;11281;52.194;21.006;2022-07-22T00:53:42;10.02;;;6.03;;
22223;SDS011;11281;52.194;21.006;2022-07-22T00:57:45;7.03;;;5.00;;
22223;SDS011;11281;52.194;21.006;2022-07-22T01:01:47;9.25;;;5.32;;
22223;SDS011;11281;52.194;21.006;2022-07-22T01:05:49;8.30;;;5.78;;
22223;SDS011;11281;52.194;21.006;2022-07-22T01:09:50;7.22;;;5.40;;
22223;SDS011;11281;52.194;21.006;2022-07-22T01:13:53;8.45;;;5.22;;
22223;SDS011;11281;52.194;21.006;2022-07-22T01:17:56;5.78;;;5.13;;
22223;SDS011;11281;52.194;21.006;2022-07-22T01:21:58;7.70;;;5.97;;
22223;SDS011;11281;52.194;21.006;2022-07-22T01:25:59;7.00;;;5.35;;
22223;SDS011;11281;52.194;21.006;2022-07-22T01:30:02;6.50;;;5.15;;
22223;SDS011;11281;52.194;21.006;2022-07-22T01:34:07;10.00;;;5.60;;
22223;SDS011;11281;52.194;21.006;2022-07-22T01:38:08;8.30;;;5.68;;
22223;SDS011;11281;52.194;21.006;2022-07-22T01:42:10;9.30;;;5.43;;
22223;SDS011;11281;52.194;21.006;2022-07-22T01:46:12;10.45;;;5.55;;
22223;SDS011;11281;52.194;21.006;2022-07-22T01:50:14;7.75;;;5.55;;
22223;SDS011;11281;52.194;21.006;2022-07-22T01:54:16;7.07;;;5.07;;
22223;SDS011;11281;52.194;21.006;2022-07-22T01:58:18;7.82;;;5.40;;
22223;SDS011;11281;52.194;21.006;2022-07-22T02:02:19;9.77;;;6.00;;
22223;SDS011;11281;52.194;21.006;2022-07-22T02:06:21;8.18;;;6.22;;
22223;SDS011;11281;52.194;21.006;2022-07-22T02:10:22;10.35;;;5.82;;
22223;SDS011;11281;52.194;21.006;2022-07-22T02:14:24;7.88;;;5.88;;
22223;SDS011;11281;52.194;21.006;2022-07-22T02:18:26;11.63;;;5.88;;
22223;SDS011;11281;52.194;21.006;2022-07-22T02:22:28;6.65;;;5.28;;
22223;SDS011;11281;52.194;21.006;2022-07-22T02:26:30;7.38;;;5.53;;
22223;SDS011;11281;52.194;21.006;2022-07-22T02:30:31;7.93;;;5.43;;
22223;SDS011;11281;52.194;21.006;2022-07-22T02:34:33;6.93;;;5.30;;
22223;SDS011;11281;52.194;21.006;2022-07-22T02:38:35;8.52;;;5.97;;
22223;SDS011;11281;52.194;21.006;2022-07-22T02:42:37;9.40;;;5.40;;
22223;SDS011;11281;52.194;21.006;2022-07-22T02:46:39;11.73;;;6.65;;
22223;SDS011;11281;52.194;21.006;2022-07-22T02:50:46;13.90;;;7.32;;
22223;SDS011;11281;52.194;21.006;2022-07-22T02:58:51;10.52;;;6.57;;
22223;SDS011;11281;52.194;21.006;2022-07-22T03:02:53;11.68;;;6.38;;
22223;SDS011;11281;52.194;21.006;2022-07-22T03:06:55;10.38;;;6.65;;
22223;SDS011;11281;52.194;21.006;2022-07-22T03:10:57;10.23;;;6.45;;
22223;SDS011;11281;52.194;21.006;2022-07-22T03:14:59;7.90;;;6.18;;
22223;SDS011;11281;52.194;21.006;2022-07-22T03:19:01;8.38;;;5.97;;
22223;SDS011;11281;52.194;21.006;2022-07-22T03:23:03;8.57;;;5.45;;
22223;SDS011;11281;52.194;21.006;2022-07-22T03:27:04;9.32;;;5.95;;
22223;SDS011;11281;52.194;21.006;2022-07-22T03:31:06;8.82;;;6.35;;
22223;SDS011;11281;52.194;21.006;2022-07-22T03:35:08;8.48;;;5.80;;
22223;SDS011;11281;52.194;21.006;2022-07-22T03:39:10;10.77;;;6.43;;
22223;SDS011;11281;52.194;21.006;2022-07-22T03:43:12;10.98;;;6.30;;
22223;SDS011;11281;52.194;21.006;2022-07-22T03:47:17;9.65;;;6.57;;
22223;SDS011;11281;52.194;21.006;2022-07-22T03:51:20;11.43;;;6.05;;
22223;SDS011;11281;52.194;21.006;2022-07-22T03:55:22;6.85;;;5.35;;
22223;SDS011;11281;52.194;21.006;2022-07-22T03:59:24;7.13;;;5.40;;
22223;SDS011;11281;52.194;21.006;2022-07-22T04:03:26;10.82;;;5.82;;
22223;SDS011;11281;52.194;21.006;2022-07-22T04:07:27;10.55;;;5.80;;
22223;SDS011;11281;52.194;21.006;2022-07-22T04:11:29;7.50;;;5.22;;
22223;SDS011;11281;52.194;21.006;2022-07-22T04:15:31;9.77;;;5.50;;
22223;SDS011;11281;52.194;21.006;2022-07-22T04:19:32;10.25;;;6.00;;
22223;SDS011;11281;52.194;21.006;2022-07-22T04:23:34;7.43;;;5.68;;
22223;SDS011;11281;52.194;21.006;2022-07-22T04:27:36;7.15;;;5.60;;
22223;SDS011;11281;52.194;21.006;2022-07-22T04:31:38;8.18;;;5.25;;
22223;SDS011;11281;52.194;21.006;2022-07-22T04:35:39;10.52;;;5.97;;
22223;SDS011;11281;52.194;21.006;2022-07-22T04:39:41;9.57;;;5.40;;
22223;SDS011;11281;52.194;21.006;2022-07-22T04:43:43;8.82;;;5.03;;
22223;SDS011;11281;52.194;21.006;2022-07-22T04:47:45;9.65;;;5.07;;
22223;SDS011;11281;52.194;21.006;2022-07-22T04:51:47;7.45;;;5.10;;
22223;SDS011;11281;52.194;21.006;2022-07-22T04:55:49;9.48;;;4.68;;
22223;SDS011;11281;52.194;21.006;2022-07-22T04:59:50;6.97;;;5.25;;
22223;SDS011;11281;52.194;21.006;2022-07-22T05:03:53;7.88;;;5.43;;
22223;SDS011;11281;52.194;21.006;2022-07-22T05:07:55;6.88;;;4.88;;
22223;SDS011;11281;52.194;21.006;2022-07-22T05:11:57;12.60;;;5.50;;
22223;SDS011;11281;52.194;21.006;2022-07-22T05:16:02;7.95;;;4.88;;
22223;SDS011;11281;52.194;21.006;2022-07-22T05:20:05;9.60;;;4.97;;
22223;SDS011;11281;52.194;21.006;2022-07-22T05:24:07;5.25;;;4.72;;
22223;SDS011;11281;52.194;21.006;2022-07-22T05:28:09;10.65;;;5.57;;
22223;SDS011;11281;52.194;21.006;2022-07-22T05:32:10;7.18;;;5.70;;
22223;SDS011;11281;52.194;21.006;2022-07-22T05:36:12;8.48;;;5.50;;
22223;SDS011;11281;52.194;21.006;2022-07-22T05:40:14;7.88;;;5.05;;
22223;SDS011;11281;52.194;21.006;2022-07-22T05:44:16;6.78;;;4.90;;
22223;SDS011;11281;52.194;21.006;2022-07-22T05:48:19;9.27;;;6.38;;
22223;SDS011;11281;52.194;21.006;2022-07-22T05:52:20;10.07;;;5.00;;
22223;SDS011;11281;52.194;21.006;2022-07-22T05:56:22;8.10;;;5.07;;
22223;SDS011;11281;52.194;21.006;2022-07-22T06:00:24;6.32;;;5.20;;
22223;SDS011;11281;52.194;21.006;2022-07-22T06:04:26;7.93;;;5.13;;
22223;SDS011;11281;52.194;21.006;2022-07-22T06:08:37;9.65;;;5.03;;
22223;SDS011;11281;52.194;21.006;2022-07-22T06:12:38;8.02;;;4.88;;
22223;SDS011;11281;52.194;21.006;2022-07-22T06:16:40;9.60;;;5.38;;
22223;SDS011;11281;52.194;21.006;2022-07-22T06:20:41;12.30;;;5.32;;
22223;SDS011;11281;52.194;21.006;2022-07-22T06:24:44;11.02;;;5.22;;
22223;SDS011;11281;52.194;21.006;2022-07-22T06:28:46;9.15;;;5.38;;
22223;SDS011;11281;52.194;21.006;2022-07-22T06:32:48;10.50;;;5.45;;
22223;SDS011;11281;52.194;21.006;2022-07-22T06:36:49;11.10;;;5.57;;
22223;SDS011;11281;52.194;21.006;2022-07-22T06:40:51;12.18;;;5.40;;
22223;SDS011;11281;52.194;21.006;2022-07-22T06:44:53;7.82;;;5.30;;
22223;SDS011;11281;52.194;21.006;2022-07-22T06:48:55;9.25;;;5.07;;
22223;SDS011;11281;52.194;21.006;2022-07-22T06:52:58;7.53;;;4.20;;
22223;SDS011;11281;52.194;21.006;2022-07-22T06:56:59;11.95;;;4.88;;
22223;SDS011;11281;52.194;21.006;2022-07-22T07:01:01;10.82;;;4.60;;
22223;SDS011;11281;52.194;21.006;2022-07-22T07:05:03;7.80;;;4.43;;
22223;SDS011;11281;52.194;21.006;2022-07-22T07:09:05;9.80;;;5.05;;
22223;SDS011;11281;52.194;21.006;2022-07-22T07:13:09;9.48;;;3.58;;
22223;SDS011;11281;52.194;21.006;2022-07-22T07:17:10;15.55;;;4.70;;
22223;SDS011;11281;52.194;21.006;2022-07-22T07:21:12;5.97;;;4.28;;
22223;SDS011;11281;52.194;21.006;2022-07-22T07:25:14;10.73;;;4.10;;
22223;SDS011;11281;52.194;21.006;2022-07-22T07:29:16;6.75;;;4.07;;
22223;SDS011;11281;52.194;21.006;2022-07-22T07:33:18;10.60;;;4.70;;
22223;SDS011;11281;52.194;21.006;2022-07-22T07:37:20;7.45;;;4.30;;
22223;SDS011;11281;52.194;21.006;2022-07-22T07:41:22;8.30;;;4.22;;
22223;SDS011;11281;52.194;21.006;2022-07-22T07:45:23;14.55;;;4.40;;
22223;SDS011;11281;52.194;21.006;2022-07-22T07:49:26;7.20;;;4.60;;
22223;SDS011;11281;52.194;21.006;2022-07-22T07:53:28;9.60;;;4.60;;
22223;SDS011;11281;52.194;21.006;2022-07-22T07:57:30;8.63;;;4.38;;
22223;SDS011;11281;52.194;21.006;2022-07-22T08:01:32;5.85;;;4.22;;
22223;SDS011;11281;52.194;21.006;2022-07-22T08:05:33;11.48;;;5.07;;
22223;SDS011;11281;52.194;21.006;2022-07-22T08:09:35;8.43;;;5.47;;
22223;SDS011;11281;52.194;21.006;2022-07-22T08:13:38;12.38;;;5.13;;
22223;SDS011;11281;52.194;21.006;2022-07-22T08:17:39;11.73;;;5.72;;
22223;SDS011;11281;52.194;21.006;2022-07-22T08:21:41;11.70;;;5.30;;
22223;SDS011;11281;52.194;21.006;2022-07-22T08:25:43;7.53;;;5.18;;
22223;SDS011;11281;52.194;21.006;2022-07-22T08:29:45;10.40;;;5.97;;
22223;SDS011;11281;52.194;21.006;2022-07-22T08:33:47;13.32;;;5.72;;
22223;SDS011;11281;52.194;21.006;2022-07-22T08:37:48;9.90;;;5.93;;
22223;SDS011;11281;52.194;21.006;2022-07-22T08:41:50;9.13;;;6.18;;
22223;SDS011;11281;52.194;21.006;2022-07-22T08:45:53;9.68;;;6.13;;
22223;SDS011;11281;52.194;21.006;2022-07-22T08:49:55;13.00;;;6.00;;
22223;SDS011;11281;52.194;21.006;2022-07-22T08:53:57;9.32;;;5.68;;
22223;SDS011;11281;52.194;21.006;2022-07-22T08:57:59;9.40;;;6.85;;
22223;SDS011;11281;52.194;21.006;2022-07-22T09:06:10;10.88;;;6.72;;
22223;SDS011;11281;52.194;21.006;2022-07-22T09:10:14;8.85;;;6.00;;
22223;SDS011;11281;52.194;21.006;2022-07-22T09:14:20;13.03;;;7.37;;
22223;SDS011;11281;52.194;21.006;2022-07-22T09:18:21;15.82;;;7.03;;
22223;SDS011;11281;52.194;21.006;2022-07-22T09:22:34;11.52;;;7.15;;
22223;SDS011;11281;52.194;21.006;2022-07-22T09:26:41;11.25;;;7.38;;
22223;SDS011;11281;52.194;21.006;2022-07-22T09:30:47;14.57;;;8.82;;
22223;SDS011;11281;52.194;21.006;2022-07-22T09:35:02;13.60;;;9.00;;
22223;SDS011;11281;52.194;21.006;2022-07-22T09:39:23;15.77;;;9.27;;
22223;SDS011;11281;52.194;21.006;2022-07-22T09:43:27;12.82;;;8.43;;
22223;SDS011;11281;52.194;21.006;2022-07-22T09:47:34;18.33;;;8.88;;
22223;SDS011;11281;52.194;21.006;2022-07-22T09:51:37;15.65;;;10.15;;
22223;SDS011;11281;52.194;21.006;2022-07-22T09:55:39;13.98;;;9.07;;
22223;SDS011;11281;52.194;21.006;2022-07-22T09:59:41;12.85;;;10.02;;
22223;SDS011;11281;52.194;21.006;2022-07-22T10:03:43;14.15;;;9.60;;
22223;SDS011;11281;52.194;21.006;2022-07-22T10:07:50;15.33;;;9.47;;
22223;SDS011;11281;52.194;21.006;2022-07-22T10:11:53;15.13;;;10.85;;
22223;SDS011;11281;52.194;21.006;2022-07-22T10:15:55;14.57;;;9.88;;
22223;SDS011;11281;52.194;21.006;2022-07-22T10:19:58;14.40;;;9.52;;
22223;SDS011;11281;52.194;21.006;2022-07-22T10:28:31;14.23;;;9.90;;
22223;SDS011;11281;52.194;21.006;2022-07-22T10:32:36;15.95;;;10.23;;
22223;SDS011;11281;52.194;21.006;2022-07-22T10:36:39;15.05;;;10.70;;
22223;SDS011;11281;52.194;21.006;2022-07-22T10:41:06;12.67;;;10.17;;
22223;SDS011;11281;52.194;21.006;2022-07-22T10:45:11;14.50;;;10.38;;
22223;SDS011;11281;52.194;21.006;2022-07-22T10:49:18;15.27;;;11.38;;
22223;SDS011;11281;52.194;21.006;2022-07-22T10:53:24;15.35;;;10.88;;
22223;SDS011;11281;52.194;21.006;2022-07-22T10:57:55;13.23;;;10.52;;
22223;SDS011;11281;52.194;21.006;2022-07-22T11:01:57;16.75;;;10.50;;
22223;SDS011;11281;52.194;21.006;2022-07-22T11:06:15;12.38;;;10.05;;
22223;SDS011;11281;52.194;21.006;2022-07-22T11:10:19;17.13;;;10.32;;
22223;SDS011;11281;52.194;21.006;2022-07-22T11:22:55;13.40;;;8.73;;
22223;SDS011;11281;52.194;21.006;2022-07-22T11:26:57;10.45;;;7.97;;
22223;SDS011;11281;52.194;21.006;2022-07-22T11:31:04;15.93;;;8.48;;
22223;SDS011;11281;52.194;21.006;2022-07-22T11:35:11;11.77;;;8.05;;
22223;SDS011;11281;52.194;21.006;2022-07-22T11:39:14;10.27;;;8.60;;
22223;SDS011;11281;52.194;21.006;2022-07-22T11:43:22;10.93;;;9.10;;
22223;SDS011;11281;52.194;21.006;2022-07-22T11:47:24;13.00;;;8.18;;
22223;SDS011;11281;52.194;21.006;2022-07-22T11:51:29;9.30;;;7.90;;
22223;SDS011;11281;52.194;21.006;2022-07-22T11:55:33;11.07;;;8.52;;
22223;SDS011;11281;52.194;21.006;2022-07-22T11:59:35;14.55;;;8.38;;
22223;SDS011;11281;52.194;21.006;2022-07-22T12:03:37;12.15;;;8.20;;
22223;SDS011;11281;52.194;21.006;2022-07-22T12:07:41;13.02;;;8.65;;
22223;SDS011;11281;52.194;21.006;2022-07-22T12:11:46;10.32;;;8.63;;
22223;SDS011;11281;52.194;21.006;2022-07-22T12:15:49;12.75;;;8.30;;
22223;SDS011;11281;52.194;21.006;2022-07-22T12:19:51;10.27;;;7.95;;
22223;SDS011;11281;52.194;21.006;2022-07-22T12:23:58;17.77;;;9.15;;
22223;SDS011;11281;52.194;21.006;2022-07-22T12:28:06;12.73;;;7.72;;
22223;SDS011;11281;52.194;21.006;2022-07-22T12:32:23;12.60;;;8.02;;
22223;SDS011;11281;52.194;21.006;2022-07-22T12:36:32;11.07;;;7.70;;
22223;SDS011;11281;52.194;21.006;2022-07-22T12:40:34;11.50;;;8.68;;
22223;SDS011;11281;52.194;21.006;2022-07-22T12:44:37;15.02;;;8.45;;
22223;SDS011;11281;52.194;21.006;2022-07-22T12:48:38;9.63;;;8.00;;
22223;SDS011;11281;52.194;21.006;2022-07-22T12:52:54;15.15;;;8.68;;
22223;SDS011;11281;52.194;21.006;2022-07-22T12:57:07;12.38;;;8.68;;
22223;SDS011;11281;52.194;21.006;2022-07-22T13:01:10;10.73;;;8.27;;
22223;SDS011;11281;52.194;21.006;2022-07-22T13:05:11;13.23;;;8.60;;
22223;SDS011;11281;52.194;21.006;2022-07-22T13:09:14;12.45;;;8.55;;
22223;SDS011;11281;52.194;21.006;2022-07-22T13:13:16;13.50;;;9.05;;
22223;SDS011;11281;52.194;21.006;2022-07-22T13:17:19;13.20;;;8.77;;
22223;SDS011;11281;52.194;21.006;2022-07-22T13:21:21;12.40;;;8.35;;
22223;SDS011;11281;52.194;21.006;2022-07-22T13:25:23;11.40;;;8.05;;
22223;SDS011;11281;52.194;21.006;2022-07-22T13:29:27;8.80;;;7.97;;
22223;SDS011;11281;52.194;21.006;2022-07-22T13:33:28;11.80;;;8.32;;
22223;SDS011;11281;52.194;21.006;2022-07-22T13:37:30;16.58;;;9.10;;
22223;SDS011;11281;52.194;21.006;2022-07-22T13:41:32;10.20;;;8.25;;
22223;SDS011;11281;52.194;21.006;2022-07-22T13:45:33;11.40;;;8.05;;
22223;SDS011;11281;52.194;21.006;2022-07-22T13:49:34;12.60;;;8.00;;
22223;SDS011;11281;52.194;21.006;2022-07-22T13:53:36;11.90;;;8.07;;
22223;SDS011;11281;52.194;21.006;2022-07-22T13:57:39;13.13;;;7.63;;
22223;SDS011;11281;52.194;21.006;2022-07-22T14:01:41;12.70;;;7.32;;
22223;SDS011;11281;52.194;21.006;2022-07-22T14:05:44;8.48;;;6.82;;
22223;SDS011;11281;52.194;21.006;2022-07-22T14:09:46;10.07;;;7.70;;
22223;SDS011;11281;52.194;21.006;2022-07-22T14:13:48;11.45;;;7.68;;
22223;SDS011;11281;52.194;21.006;2022-07-22T14:17:50;14.98;;;8.40;;
22223;SDS011;11281;52.194;21.006;2022-07-22T14:21:52;11.10;;;8.13;;
22223;SDS011;11281;52.194;21.006;2022-07-22T14:25:54;9.45;;;7.30;;
22223;SDS011;11281;52.194;21.006;2022-07-22T14:29:55;8.93;;;7.30;;
22223;SDS011;11281;52.194;21.006;2022-07-22T14:33:57;8.68;;;7.63;;
22223;SDS011;11281;52.194;21.006;2022-07-22T14:37:59;13.18;;;7.18;;
22223;SDS011;11281;52.194;21.006;2022-07-22T14:42:01;12.70;;;7.55;;
22223;SDS011;11281;52.194;21.006;2022-07-22T14:46:03;11.02;;;7.20;;
22223;SDS011;11281;52.194;21.006;2022-07-22T14:50:07;9.63;;;7.55;;
22223;SDS011;11281;52.194;21.006;2022-07-22T14:54:09;9.82;;;7.35;;
22223;SDS011;11281;52.194;21.006;2022-07-22T14:58:12;8.30;;;6.97;;
22223;SDS011;11281;52.194;21.006;2022-07-22T15:02:13;10.48;;;7.35;;
22223;SDS011;11281;52.194;21.006;2022-07-22T15:06:15;10.23;;;7.35;;
22223;SDS011;11281;52.194;21.006;2022-07-22T15:10:17;9.65;;;7.97;;
22223;SDS011;11281;52.194;21.006;2022-07-22T15:14:18;9.50;;;6.72;;
22223;SDS011;11281;52.194;21.006;2022-07-22T15:18:20;7.60;;;6.80;;
22223;SDS011;11281;52.194;21.006;2022-07-22T15:22:21;7.63;;;6.47;;
22223;SDS011;11281;52.194;21.006;2022-07-22T15:26:25;11.27;;;6.07;;
22223;SDS011;11281;52.194;21.006;2022-07-22T15:30:27;8.35;;;6.70;;
22223;SDS011;11281;52.194;21.006;2022-07-22T15:34:30;10.80;;;7.03;;
22223;SDS011;11281;52.194;21.006;2022-07-22T15:38:36;9.27;;;7.40;;
22223;SDS011;11281;52.194;21.006;2022-07-22T15:42:39;10.93;;;6.90;;
22223;SDS011;11281;52.194;21.006;2022-07-22T15:46:41;9.75;;;7.97;;
22223;SDS011;11281;52.194;21.006;2022-07-22T15:50:43;12.48;;;7.75;;
22223;SDS011;11281;52.194;21.006;2022-07-22T15:54:45;9.13;;;8.25;;
22223;SDS011;11281;52.194;21.006;2022-07-22T15:58:46;8.65;;;7.75;;
22223;SDS011;11281;52.194;21.006;2022-07-22T16:03:07;8.25;;;7.38;;
22223;SDS011;11281;52.194;21.006;2022-07-22T16:07:08;10.73;;;8.25;;
22223;SDS011;11281;52.194;21.006;2022-07-22T16:11:11;15.38;;;7.95;;
22223;SDS011;11281;52.194;21.006;2022-07-22T16:15:13;10.38;;;7.97;;
22223;SDS011;11281;52.194;21.006;2022-07-22T16:19:15;11.02;;;7.75;;
22223;SDS011;11281;52.194;21.006;2022-07-22T16:23:17;18.38;;;7.50;;
22223;SDS011;11281;52.194;21.006;2022-07-22T16:27:19;11.00;;;8.32;;
22223;SDS011;11281;52.194;21.006;2022-07-22T16:31:21;8.35;;;7.38;;
22223;SDS011;11281;52.194;21.006;2022-07-22T16:35:25;9.88;;;7.90;;
22223;SDS011;11281;52.194;21.006;2022-07-22T16:39:28;11.98;;;7.35;;
22223;SDS011;11281;52.194;21.006;2022-07-22T16:43:29;12.68;;;7.60;;
22223;SDS011;11281;52.194;21.006;2022-07-22T16:47:32;9.25;;;7.20;;
22223;SDS011;11281;52.194;21.006;2022-07-22T16:51:34;9.80;;;6.80;;
22223;SDS011;11281;52.194;21.006;2022-07-22T16:55:35;10.50;;;7.85;;
22223;SDS011;11281;52.194;21.006;2022-07-22T16:59:37;8.73;;;7.10;;
22223;SDS011;11281;52.194;21.006;2022-07-22T17:03:39;9.45;;;6.95;;
22223;SDS011;11281;52.194;21.006;2022-07-22T17:07:40;9.38;;;6.93;;
22223;SDS011;11281;52.194;21.006;2022-07-22T17:11:42;9.88;;;7.15;;
22223;SDS011;11281;52.194;21.006;2022-07-22T17:15:44;10.07;;;7.65;;
22223;SDS011;11281;52.194;21.006;2022-07-22T17:19:46;12.88;;;7.85;;
22223;SDS011;11281;52.194;21.006;2022-07-22T17:23:47;12.63;;;7.32;;
22223;SDS011;11281;52.194;21.006;2022-07-22T17:27:49;7.40;;;6.15;;
22223;SDS011;11281;52.194;21.006;2022-07-22T17:31:51;8.60;;;6.88;;
22223;SDS011;11281;52.194;21.006;2022-07-22T17:35:53;8.85;;;7.00;;
22223;SDS011;11281;52.194;21.006;2022-07-22T17:39:55;10.30;;;6.80;;
22223;SDS011;11281;52.194;21.006;2022-07-22T17:43:56;8.65;;;7.05;;
22223;SDS011;11281;52.194;21.006;2022-07-22T17:47:58;9.25;;;6.93;;
22223;SDS011;11281;52.194;21.006;2022-07-22T17:52:00;8.80;;;6.72;;
22223;SDS011;11281;52.194;21.006;2022-07-22T17:56:02;7.22;;;6.55;;
22223;SDS011;11281;52.194;21.006;2022-07-22T18:00:05;13.93;;;6.75;;
22223;SDS011;11281;52.194;21.006;2022-07-22T18:04:09;10.98;;;7.35;;
22223;SDS011;11281;52.194;21.006;2022-07-22T18:08:10;11.40;;;7.07;;
22223;SDS011;11281;52.194;21.006;2022-07-22T18:12:12;9.68;;;7.32;;
22223;SDS011;11281;52.194;21.006;2022-07-22T18:16:14;8.02;;;6.80;;
22223;SDS011;11281;52.194;21.006;2022-07-22T18:20:20;9.23;;;7.15;;
22223;SDS011;11281;52.194;21.006;2022-07-22T18:24:21;10.23;;;7.43;;
22223;SDS011;11281;52.194;21.006;2022-07-22T18:28:24;10.23;;;7.70;;
22223;SDS011;11281;52.194;21.006;2022-07-22T18:32:25;11.05;;;6.97;;
22223;SDS011;11281;52.194;21.006;2022-07-22T18:36:27;10.50;;;7.03;;
22223;SDS011;11281;52.194;21.006;2022-07-22T18:40:29;10.45;;;7.38;;
22223;SDS011;11281;52.194;21.006;2022-07-22T18:44:31;7.57;;;6.82;;
22223;SDS011;11281;52.194;21.006;2022-07-22T18:48:33;11.10;;;7.20;;
22223;SDS011;11281;52.194;21.006;2022-07-22T18:52:35;8.50;;;7.05;;
22223;SDS011;11281;52.194;21.006;2022-07-22T18:56:37;8.95;;;7.07;;
22223;SDS011;11281;52.194;21.006;2022-07-22T19:00:39;11.27;;;7.80;;
22223;SDS011;11281;52.194;21.006;2022-07-22T19:04:41;8.63;;;7.30;;
22223;SDS011;11281;52.194;21.006;2022-07-22T19:08:44;8.85;;;7.45;;
22223;SDS011;11281;52.194;21.006;2022-07-22T19:12:45;9.93;;;7.88;;
22223;SDS011;11281;52.194;21.006;2022-07-22T19:16:47;10.10;;;7.20;;
22223;SDS011;11281;52.194;21.006;2022-07-22T19:20:49;11.52;;;7.47;;
22223;SDS011;11281;52.194;21.006;2022-07-22T19:24:52;8.27;;;7.38;;
22223;SDS011;11281;52.194;21.006;2022-07-22T19:28:55;10.68;;;8.10;;
22223;SDS011;11281;52.194;21.006;2022-07-22T19:32:56;8.65;;;7.75;;
22223;SDS011;11281;52.194;21.006;2022-07-22T19:36:58;10.52;;;8.07;;
22223;SDS011;11281;52.194;21.006;2022-07-22T19:41:00;9.27;;;8.27;;
22223;SDS011;11281;52.194;21.006;2022-07-22T19:45:02;11.27;;;8.63;;
22223;SDS011;11281;52.194;21.006;2022-07-22T19:49:05;9.35;;;8.23;;
22223;SDS011;11281;52.194;21.006;2022-07-22T19:53:06;9.60;;;8.32;;
22223;SDS011;11281;52.194;21.006;2022-07-22T19:57:08;15.43;;;9.68;;
22223;SDS011;11281;52.194;21.006;2022-07-22T20:01:10;11.98;;;8.75;;
22223;SDS011;11281;52.194;21.006;2022-07-22T20:05:13;12.60;;;8.02;;
22223;SDS011;11281;52.194;21.006;2022-07-22T20:09:15;9.02;;;8.10;;
22223;SDS011;11281;52.194;21.006;2022-07-22T20:13:16;11.95;;;8.80;;
22223;SDS011;11281;52.194;21.006;2022-07-22T20:17:18;10.40;;;8.45;;
22223;SDS011;11281;52.194;21.006;2022-07-22T20:21:20;9.43;;;8.20;;
22223;SDS011;11281;52.194;21.006;2022-07-22T20:25:22;11.45;;;8.68;;
22223;SDS011;11281;52.194;21.006;2022-07-22T20:29:24;10.52;;;8.20;;
22223;SDS011;11281;52.194;21.006;2022-07-22T20:33:26;11.55;;;8.50;;
22223;SDS011;11281;52.194;21.006;2022-07-22T20:37:27;10.30;;;8.63;;
22223;SDS011;11281;52.194;21.006;2022-07-22T20:41:29;14.32;;;9.48;;
22223;SDS011;11281;52.194;21.006;2022-07-22T20:45:30;11.90;;;9.25;;
22223;SDS011;11281;52.194;21.006;2022-07-22T20:49:33;11.02;;;8.80;;
22223;SDS011;11281;52.194;21.006;2022-07-22T20:53:35;11.05;;;9.82;;
22223;SDS011;11281;52.194;21.006;2022-07-22T20:57:37;10.88;;;9.73;;
22223;SDS011;11281;52.194;21.006;2022-07-22T21:01:39;12.52;;;9.48;;
22223;SDS011;11281;52.194;21.006;2022-07-22T21:05:40;10.68;;;9.20;;
22223;SDS011;11281;52.194;21.006;2022-07-22T21:09:42;11.85;;;9.55;;
22223;SDS011;11281;52.194;21.006;2022-07-22T21:13:44;13.13;;;9.95;;
22223;SDS011;11281;52.194;21.006;2022-07-22T21:17:49;14.68;;;9.32;;
22223;SDS011;11281;52.194;21.006;2022-07-22T21:21:50;10.88;;;9.70;;
22223;SDS011;11281;52.194;21.006;2022-07-22T21:25:52;12.00;;;10.27;;
22223;SDS011;11281;52.194;21.006;2022-07-22T21:29:53;11.77;;;9.52;;
22223;SDS011;11281;52.194;21.006;2022-07-22T21:33:55;13.25;;;9.50;;
22223;SDS011;11281;52.194;21.006;2022-07-22T21:37:57;14.15;;;9.68;;
22223;SDS011;11281;52.194;21.006;2022-07-22T21:41:58;12.20;;;8.73;;
22223;SDS011;11281;52.194;21.006;2022-07-22T21:46:00;11.63;;;9.57;;
22223;SDS011;11281;52.194;21.006;2022-07-22T21:50:03;10.45;;;9.10;;
22223;SDS011;11281;52.194;21.006;2022-07-22T21:54:06;11.82;;;9.10;;
22223;SDS011;11281;52.194;21.006;2022-07-22T21:58:08;13.40;;;9.95;;
22223;SDS011;11281;52.194;21.006;2022-07-22T22:02:10;11.07;;;9.70;;
22223;SDS011;11281;52.194;21.006;2022-07-22T22:06:12;11.68;;;9.43;;
22223;SDS011;11281;52.194;21.006;2022-07-22T22:10:13;11.98;;;9.35;;
22223;SDS011;11281;52.194;21.006;2022-07-22T22:14:15;13.75;;;10.35;;
22223;SDS011;11281;52.194;21.006;2022-07-22T22:18:18;13.52;;;9.15;;
22223;SDS011;11281;52.194;21.006;2022-07-22T22:22:19;11.00;;;9.27;;
22223;SDS011;11281;52.194;21.006;2022-07-22T22:26:21;11.25;;;9.02;;
22223;SDS011;11281;52.194;21.006;2022-07-22T22:30:23;14.07;;;8.75;;
22223;SDS011;11281;52.194;21.006;2022-07-22T22:34:24;11.93;;;9.20;;
22223;SDS011;11281;52.194;21.006;2022-07-22T22:38:27;11.60;;;9.15;;
22223;SDS011;11281;52.194;21.006;2022-07-22T22:42:29;10.73;;;9.18;;
22223;SDS011;11281;52.194;21.006;2022-07-22T22:46:31;11.75;;;9.00;;
22223;SDS011;11281;52.194;21.006;2022-07-22T22:50:33;10.30;;;8.70;;
22223;SDS011;11281;52.194;21.006;2022-07-22T22:54:35;13.93;;;9.65;;
22223;SDS011;11281;52.194;21.006;2022-07-22T22:58:37;11.35;;;8.77;;
22223;SDS011;11281;52.194;21.006;2022-07-22T23:02:39;10.05;;;8.82;;
22223;SDS011;11281;52.194;21.006;2022-07-22T23:06:41;11.43;;;8.75;;
22223;SDS011;11281;52.194;21.006;2022-07-22T23:10:42;13.68;;;9.75;;
22223;SDS011;11281;52.194;21.006;2022-07-22T23:14:44;11.68;;;9.60;;
22223;SDS011;11281;52.194;21.006;2022-07-22T23:18:46;12.68;;;9.40;;
22223;SDS011;11281;52.194;21.006;2022-07-22T23:22:48;11.40;;;10.10;;
22223;SDS011;11281;52.194;21.006;2022-07-22T23:26:50;11.13;;;9.25;;
22223;SDS011;11281;52.194;21.006;2022-07-22T23:30:51;10.88;;;9.20;;
22223;SDS011;11281;52.194;21.006;2022-07-22T23:34:53;11.75;;;8.90;;
22223;SDS011;11281;52.194;21.006;2022-07-22T23:38:55;10.68;;;9.00;;
22223;SDS011;11281;52.194;21.006;2022-07-22T23:42:57;10.95;;;9.00;;
22223;SDS011;11281;52.194;21.006;2022-07-22T23:46:59;10.35;;;9.25;;
22223;SDS011;11281;52.194;21.006;2022-07-22T23:51:01;14.65;;;9.07;;
22223;SDS011;11281;52.194;21.006;2022-07-22T23:55:03;13.82;;;10.02;;
22223;SDS011;11281;52.194;21.006;2022-07-22T23:59:06;13.13;;;10.23;;
